ULLI/LED METAR and TAF weather

Enter ICAO airport designator
Station Type Date Time Source
ULLI METAR 2022/06/30 13:00 UTC NOAA

ULLI 301300Z 10004MPS 060V140 CAVOK 26/09 Q1021 R88/090060 NOSIG


Station Type Date Time Source
ULLI Decoded METAR 2022/06/30 13:00 UTC NOAA

St. Peterburg, Russia (ULLI) 59-58N 030-18E 6M
Jun 30, 2022 - 09:00 AM EDT / 2022.06.30 1300 UTC
Wind: from the E (100 degrees) at 9 MPH (8 KT) (direction variable):0
Visibility: greater than 7 mile(s):0
Temperature: 78 F (26 C)
Dew Point: 48 F (9 C)
Relative Humidity: 34%
Pressure (altimeter): 30.15 in. Hg (1021 hPa)
ob: ULLI 301300Z 10004MPS 060V140 CAVOK 26/09 Q1021 R88/090060 NOSIG
cycle: 13

Station Type Date Time Source
ULLI TAF 2022/06/30 12:23 UTC NOAA

TAF ULLI 301053Z 3012/0112 08003G08MPS CAVOK TX30/0110Z TN16/0101Z

Example: see airport list